createdAt,value
2023-12-10T00:00:27.976Z,-4.90
2023-12-10T00:02:54.996Z,-4.80
2023-12-10T00:05:21.866Z,-4.80
2023-12-10T00:07:48.724Z,-4.80
2023-12-10T00:10:15.713Z,-4.70
2023-12-10T00:12:42.646Z,-4.80
2023-12-10T00:15:10.293Z,-4.90
2023-12-10T00:17:37.431Z,-4.80
2023-12-10T00:20:04.843Z,-4.80
2023-12-10T00:22:32.187Z,-4.80
2023-12-10T00:24:59.501Z,-4.70
2023-12-10T00:27:26.498Z,-4.90
2023-12-10T00:29:53.645Z,-4.90
2023-12-10T00:32:20.664Z,-4.90
2023-12-10T00:34:47.685Z,-4.90
2023-12-10T00:37:14.752Z,-4.90
2023-12-10T00:39:41.658Z,-4.80
2023-12-10T00:42:08.980Z,-4.90
2023-12-10T00:44:36.223Z,-4.90
2023-12-10T00:47:03.147Z,-4.90
2023-12-10T00:49:30.099Z,-4.90
2023-12-10T00:51:57.081Z,-4.90
2023-12-10T00:54:24.031Z,-4.90
2023-12-10T00:56:50.875Z,-4.90
2023-12-10T00:59:17.800Z,-4.90
2023-12-10T01:01:44.664Z,-5.00
2023-12-10T01:04:11.686Z,-5.00
2023-12-10T01:06:38.738Z,-5.00
2023-12-10T01:09:05.818Z,-5.00
2023-12-10T01:11:32.737Z,-5.00
2023-12-10T01:13:59.675Z,-5.10
2023-12-10T01:16:26.528Z,-5.10
2023-12-10T01:18:54.410Z,-5.10
2023-12-10T01:21:21.427Z,-5.20
2023-12-10T01:23:50.653Z,-5.20
2023-12-10T01:26:17.594Z,-5.20
2023-12-10T01:28:44.578Z,-5.10
2023-12-10T01:31:11.556Z,-5.20
2023-12-10T01:33:38.635Z,-5.10
2023-12-10T01:36:06.517Z,-5.20
2023-12-10T01:38:33.732Z,-5.20
2023-12-10T01:41:00.615Z,-5.20
2023-12-10T01:43:27.660Z,-5.20
2023-12-10T01:45:55.912Z,-5.30
2023-12-10T01:48:24.938Z,-5.30
2023-12-10T01:50:54.497Z,-5.20
2023-12-10T01:53:23.452Z,-5.20
2023-12-10T01:55:51.168Z,-5.10
2023-12-10T01:58:18.214Z,-5.20
2023-12-10T02:03:13.299Z,-5.10
2023-12-10T02:05:40.311Z,-5.20
2023-12-10T02:08:07.264Z,-5.10
2023-12-10T02:10:34.096Z,-5.20
2023-12-10T02:13:03.419Z,-5.20
2023-12-10T02:15:32.456Z,-5.20
2023-12-10T02:17:59.440Z,-5.20
2023-12-10T02:20:26.417Z,-5.30
2023-12-10T02:23:05.819Z,-5.20
2023-12-10T02:25:36.817Z,-5.30
2023-12-10T02:28:04.773Z,-5.30
2023-12-10T02:30:32.133Z,-5.30
2023-12-10T02:32:59.619Z,-5.40
2023-12-10T02:35:27.847Z,-5.30
2023-12-10T02:37:55.499Z,-5.40
2023-12-10T02:40:22.459Z,-5.40
2023-12-10T02:42:49.715Z,-5.40
2023-12-10T02:45:17.632Z,-5.40
2023-12-10T02:47:45.106Z,-5.50
2023-12-10T02:50:12.040Z,-5.40
2023-12-10T02:52:39.762Z,-5.40
2023-12-10T02:55:07.868Z,-5.40
2023-12-10T02:57:34.999Z,-5.50
2023-12-10T03:00:02.231Z,-5.40
2023-12-10T03:02:29.561Z,-5.30
2023-12-10T03:04:56.556Z,-5.40
2023-12-10T03:07:23.480Z,-5.40
2023-12-10T03:09:50.522Z,-5.40
2023-12-10T03:12:17.480Z,-5.60
2023-12-10T03:14:44.437Z,-5.50
2023-12-10T03:17:11.374Z,-5.50
2023-12-10T03:19:39.607Z,-5.60
2023-12-10T03:22:06.712Z,-5.60
2023-12-10T03:24:33.674Z,-5.60
2023-12-10T03:27:00.558Z,-5.60
2023-12-10T03:29:27.453Z,-5.60
2023-12-10T03:31:55.027Z,-5.60
2023-12-10T03:34:22.063Z,-5.70
2023-12-10T03:36:49.222Z,-5.70
2023-12-10T03:39:16.169Z,-5.70
2023-12-10T03:41:43.018Z,-5.80
2023-12-10T03:44:09.955Z,-5.70
2023-12-10T03:46:36.823Z,-5.70
2023-12-10T03:49:04.127Z,-5.70
2023-12-10T03:51:32.493Z,-5.60
2023-12-10T03:53:59.706Z,-5.50
2023-12-10T03:56:26.586Z,-5.40
2023-12-10T03:58:53.484Z,-5.40
2023-12-10T04:01:20.559Z,-5.30
2023-12-10T04:03:47.631Z,-5.30
2023-12-10T04:06:14.640Z,-5.30
2023-12-10T04:08:41.528Z,-5.20
2023-12-10T04:11:08.421Z,-5.20
2023-12-10T04:13:35.345Z,-5.20
2023-12-10T04:16:02.408Z,-5.20
2023-12-10T04:18:29.761Z,-5.10
2023-12-10T04:20:56.941Z,-5.10
2023-12-10T04:23:23.894Z,-5.10
2023-12-10T04:25:51.365Z,-5.00
2023-12-10T04:28:18.277Z,-5.10
2023-12-10T04:30:45.196Z,-5.10
2023-12-10T04:33:12.515Z,-5.00
2023-12-10T04:35:39.662Z,-5.00
2023-12-10T04:38:06.605Z,-5.00
2023-12-10T04:40:33.491Z,-5.00
2023-12-10T04:43:00.510Z,-5.00
2023-12-10T04:45:27.547Z,-4.90
2023-12-10T04:47:54.578Z,-4.90
2023-12-10T04:50:21.605Z,-4.90
2023-12-10T04:52:48.647Z,-4.90
2023-12-10T04:55:15.516Z,-5.00
2023-12-10T04:57:42.431Z,-4.90
2023-12-10T05:00:10.134Z,-4.90
2023-12-10T05:02:37.166Z,-4.90
2023-12-10T05:05:04.452Z,-4.90
2023-12-10T05:07:31.339Z,-4.90
2023-12-10T05:09:58.817Z,-4.90
2023-12-10T05:12:26.029Z,-4.90
2023-12-10T05:14:53.073Z,-4.90
2023-12-10T05:17:20.082Z,-5.00
2023-12-10T05:19:47.424Z,-4.90
2023-12-10T05:22:14.538Z,-4.80
2023-12-10T05:24:41.782Z,-4.90
2023-12-10T05:27:09.209Z,-4.80
2023-12-10T05:29:36.082Z,-4.80
2023-12-10T05:32:03.770Z,-4.80
2023-12-10T05:34:30.888Z,-4.90
2023-12-10T05:36:57.995Z,-4.80
2023-12-10T05:39:25.355Z,-4.80
2023-12-10T05:41:52.426Z,-4.80
2023-12-10T05:44:19.503Z,-4.80
2023-12-10T05:46:46.436Z,-4.80
2023-12-10T05:49:13.447Z,-4.80
2023-12-10T05:51:40.866Z,-4.80
2023-12-10T05:54:07.750Z,-4.80
2023-12-10T05:56:34.580Z,-4.90
2023-12-10T05:59:02.498Z,-4.80
2023-12-10T06:01:29.595Z,-4.80
2023-12-10T06:03:56.686Z,-4.80
2023-12-10T06:06:23.781Z,-4.80
2023-12-10T06:08:50.790Z,-4.70
2023-12-10T06:11:18.393Z,-4.70
2023-12-10T06:13:47.960Z,-4.70
2023-12-10T06:16:15.181Z,-4.60
2023-12-10T06:18:42.189Z,-4.60
2023-12-10T06:21:09.085Z,-4.60
2023-12-10T06:23:36.058Z,-4.60
2023-12-10T06:26:02.988Z,-4.40
2023-12-10T06:28:29.946Z,-4.50
2023-12-10T06:30:59.185Z,-4.50
2023-12-10T06:33:26.361Z,-4.40
2023-12-10T06:35:53.382Z,-4.50
2023-12-10T06:38:20.288Z,-4.50
2023-12-10T06:40:47.208Z,-4.40
2023-12-10T06:43:14.107Z,-4.40
2023-12-10T06:45:41.164Z,-4.40
2023-12-10T06:48:08.432Z,-4.40
2023-12-10T06:50:35.918Z,-4.50
2023-12-10T06:53:02.775Z,-4.50
2023-12-10T06:55:29.688Z,-4.50
2023-12-10T06:57:56.670Z,-4.40
2023-12-10T07:00:24.137Z,-4.40
2023-12-10T07:02:52.498Z,-4.50
2023-12-10T07:05:19.583Z,-4.40
2023-12-10T07:07:46.558Z,-4.50
2023-12-10T07:10:13.545Z,-4.50
2023-12-10T07:12:40.496Z,-4.30
2023-12-10T07:15:07.824Z,-4.30
2023-12-10T07:17:37.283Z,-4.30
2023-12-10T07:20:05.181Z,-4.40
2023-12-10T07:22:32.966Z,-4.30
2023-12-10T07:25:00.273Z,-4.30
2023-12-10T07:27:27.536Z,-4.30
2023-12-10T07:29:54.442Z,-4.30
2023-12-10T07:32:21.443Z,-4.30
2023-12-10T07:34:48.613Z,-4.20
2023-12-10T07:37:15.497Z,-4.20
2023-12-10T07:39:42.426Z,-4.10
2023-12-10T07:42:09.364Z,-4.20
2023-12-10T07:44:36.908Z,-4.10
2023-12-10T07:47:03.831Z,-4.10
2023-12-10T07:49:30.946Z,-4.00
2023-12-10T07:51:58.023Z,-4.00
2023-12-10T07:54:24.992Z,-4.00
2023-12-10T07:56:52.004Z,-4.00
2023-12-10T07:59:21.185Z,-4.00
2023-12-10T08:01:49.066Z,-3.90
2023-12-10T08:04:16.173Z,-3.90
2023-12-10T08:06:43.419Z,-3.90
2023-12-10T08:09:10.865Z,-3.80
2023-12-10T08:11:37.811Z,-3.80
2023-12-10T08:14:05.361Z,-3.80
2023-12-10T08:16:32.286Z,-3.90
2023-12-10T08:19:01.755Z,-3.90
2023-12-10T08:21:28.737Z,-3.80
2023-12-10T08:23:55.666Z,-3.80
2023-12-10T08:26:23.271Z,-3.80
2023-12-10T08:28:50.105Z,-3.70
2023-12-10T08:31:16.964Z,-3.70
2023-12-10T08:33:46.074Z,-3.70
2023-12-10T08:36:13.240Z,-3.70
2023-12-10T08:38:40.155Z,-3.70
2023-12-10T08:41:08.322Z,-3.70
2023-12-10T08:43:35.313Z,-3.80
2023-12-10T08:46:02.321Z,-3.70
2023-12-10T08:48:30.338Z,-3.60
2023-12-10T08:50:57.479Z,-3.70
2023-12-10T08:53:24.334Z,-3.50
2023-12-10T08:55:51.091Z,-3.40
2023-12-10T08:58:17.923Z,-3.50
2023-12-10T09:00:44.964Z,-3.40
2023-12-10T09:03:12.336Z,-3.40
2023-12-10T09:05:39.402Z,-3.50
2023-12-10T09:08:07.846Z,-3.40
2023-12-10T09:10:35.244Z,-3.50
2023-12-10T09:13:02.284Z,-3.30
2023-12-10T09:15:29.323Z,-3.20
2023-12-10T09:17:56.415Z,-3.30
2023-12-10T09:20:23.342Z,-3.30
2023-12-10T09:22:50.215Z,-3.20
2023-12-10T09:25:17.165Z,-3.20
2023-12-10T09:27:44.145Z,-3.20
2023-12-10T09:30:11.272Z,-3.10
2023-12-10T09:32:40.577Z,-3.20
2023-12-10T09:35:07.908Z,-3.10
2023-12-10T09:37:35.785Z,-3.00
2023-12-10T09:40:02.855Z,-3.10
2023-12-10T09:42:29.837Z,-3.10
2023-12-10T09:44:56.966Z,-3.00
2023-12-10T09:47:26.590Z,-3.10
2023-12-10T09:49:55.455Z,-3.00
2023-12-10T09:52:22.652Z,-3.10
2023-12-10T09:54:49.775Z,-3.10
2023-12-10T09:57:16.671Z,-3.00
2023-12-10T09:59:44.185Z,-2.90
2023-12-10T10:02:12.248Z,-3.00
2023-12-10T10:04:43.166Z,-2.80
2023-12-10T10:07:10.917Z,-2.90
2023-12-10T10:09:38.755Z,-2.90
2023-12-10T10:12:07.509Z,-2.90
2023-12-10T10:14:34.454Z,-2.80
2023-12-10T10:17:01.425Z,-2.90
2023-12-10T10:19:28.540Z,-2.90
2023-12-10T10:21:56.076Z,-2.80
2023-12-10T10:24:23.405Z,-3.00
2023-12-10T10:26:50.463Z,-2.70
2023-12-10T10:29:17.429Z,-2.90
2023-12-10T10:31:47.414Z,-2.90
2023-12-10T10:34:15.417Z,-2.90
2023-12-10T10:36:42.688Z,-3.00
2023-12-10T10:39:09.679Z,-3.00
2023-12-10T10:41:36.949Z,-2.90
2023-12-10T10:44:03.892Z,-2.90
2023-12-10T10:46:31.435Z,-2.80
2023-12-10T10:48:58.934Z,-2.70
2023-12-10T10:51:27.634Z,-2.50
2023-12-10T10:53:57.935Z,-2.70
2023-12-10T10:56:25.907Z,-2.70
2023-12-10T10:58:52.954Z,-2.70
2023-12-10T11:01:43.745Z,-2.70
2023-12-10T11:04:16.243Z,-2.60
2023-12-10T11:06:46.753Z,-2.70
2023-12-10T11:09:13.693Z,-2.80
2023-12-10T11:11:40.927Z,-2.90
2023-12-10T11:14:23.150Z,-2.80
2023-12-10T11:17:00.541Z,-2.70
2023-12-10T11:19:27.766Z,-2.70
2023-12-10T11:21:54.912Z,-2.70
2023-12-10T11:24:21.823Z,-2.70
2023-12-10T11:26:48.696Z,-2.70
2023-12-10T11:29:15.851Z,-2.80
2023-12-10T11:31:46.018Z,-2.90
2023-12-10T11:34:13.490Z,-2.60
2023-12-10T11:36:47.331Z,-2.60
2023-12-10T11:39:15.508Z,-2.70
2023-12-10T11:41:52.213Z,-2.70
2023-12-10T11:44:26.879Z,-2.60
2023-12-10T11:46:57.050Z,-2.60
2023-12-10T11:49:25.606Z,-2.70
2023-12-10T11:51:52.939Z,-2.50
2023-12-10T11:54:20.120Z,-2.70
2023-12-10T11:56:47.128Z,-2.80
2023-12-10T11:59:14.026Z,-2.80
2023-12-10T12:01:41.569Z,-2.70
2023-12-10T12:04:08.828Z,-2.70
2023-12-10T12:06:43.273Z,-2.70
2023-12-10T12:09:19.363Z,-2.80
2023-12-10T12:11:46.324Z,-2.70
2023-12-10T12:14:17.062Z,-2.70
2023-12-10T12:16:44.328Z,-2.70
2023-12-10T12:19:11.404Z,-2.70
2023-12-10T12:21:38.422Z,-2.60
2023-12-10T12:24:05.472Z,-2.60
2023-12-10T12:26:32.351Z,-2.60
2023-12-10T12:28:59.193Z,-2.80
2023-12-10T12:31:26.044Z,-2.70
2023-12-10T12:33:53.063Z,-2.70
2023-12-10T12:36:20.196Z,-2.50
2023-12-10T12:38:47.297Z,-2.50
2023-12-10T12:41:14.278Z,-2.60
2023-12-10T12:43:41.277Z,-2.70
2023-12-10T12:46:08.420Z,-2.70
2023-12-10T12:48:35.570Z,-2.70
2023-12-10T12:51:02.713Z,-2.60
2023-12-10T12:53:29.598Z,-2.70
2023-12-10T12:55:56.664Z,-2.60
2023-12-10T12:58:23.519Z,-2.60
2023-12-10T13:00:50.397Z,-2.70
2023-12-10T13:03:17.337Z,-2.70
2023-12-10T13:05:44.289Z,-2.70
2023-12-10T13:08:13.530Z,-2.50
2023-12-10T13:10:40.455Z,-2.70
2023-12-10T13:13:07.989Z,-2.60
2023-12-10T13:15:34.942Z,-2.60
2023-12-10T13:18:01.926Z,-2.70
2023-12-10T13:20:28.881Z,-2.70
2023-12-10T13:22:55.768Z,-2.70
2023-12-10T13:25:22.728Z,-2.80
2023-12-10T13:27:49.689Z,-2.70
2023-12-10T13:30:16.678Z,-2.60
2023-12-10T13:32:43.666Z,-2.70
2023-12-10T13:35:10.672Z,-2.80
2023-12-10T13:37:37.602Z,-2.70
2023-12-10T13:40:06.466Z,-2.70
2023-12-10T13:42:34.296Z,-2.70
2023-12-10T13:45:01.161Z,-2.60
2023-12-10T13:47:28.489Z,-2.50
2023-12-10T13:49:55.711Z,-2.60
2023-12-10T13:52:22.618Z,-2.70
2023-12-10T13:54:49.518Z,-2.50
2023-12-10T13:57:16.510Z,-2.70
2023-12-10T13:59:43.416Z,-2.40
2023-12-10T14:02:10.416Z,-2.60
2023-12-10T14:04:37.438Z,-2.70
2023-12-10T14:07:04.559Z,-2.60
2023-12-10T14:09:33.877Z,-2.60
2023-12-10T14:12:01.688Z,-2.50
2023-12-10T14:14:28.589Z,-2.60
2023-12-10T14:16:55.455Z,-2.60
2023-12-10T14:19:22.692Z,-2.60
2023-12-10T14:21:49.731Z,-2.60
2023-12-10T14:24:16.644Z,-2.60
2023-12-10T14:26:43.384Z,-2.40
2023-12-10T14:29:10.222Z,-2.60
2023-12-10T14:31:37.147Z,-2.60
2023-12-10T14:34:04.164Z,-2.60
2023-12-10T14:36:31.098Z,-2.60
2023-12-10T14:38:58.315Z,-2.50
2023-12-10T14:41:25.222Z,-2.60
2023-12-10T14:43:52.186Z,-2.50
2023-12-10T14:46:19.149Z,-2.50
2023-12-10T14:48:46.119Z,-2.60
2023-12-10T14:51:13.680Z,-2.60
2023-12-10T14:53:40.680Z,-2.60
2023-12-10T14:56:08.169Z,-2.50
2023-12-10T14:58:35.261Z,-2.50
2023-12-10T15:01:04.294Z,-2.70
2023-12-10T15:03:31.382Z,-2.50
2023-12-10T15:05:58.350Z,-2.50
2023-12-10T15:08:25.438Z,-2.40
2023-12-10T15:10:52.366Z,-2.50
2023-12-10T15:13:19.295Z,-2.60
2023-12-10T15:15:46.677Z,-2.60
2023-12-10T15:18:13.748Z,-2.60
2023-12-10T15:20:40.990Z,-2.50
2023-12-10T15:23:07.955Z,-2.40
2023-12-10T15:25:34.915Z,-2.50
2023-12-10T15:28:02.095Z,-2.50
2023-12-10T15:30:33.964Z,-2.50
2023-12-10T15:33:03.544Z,-2.60
2023-12-10T15:35:31.026Z,-2.60
2023-12-10T15:37:58.265Z,-2.50
2023-12-10T15:40:25.277Z,-2.60
2023-12-10T15:42:52.148Z,-2.70
2023-12-10T15:45:19.240Z,-2.60
2023-12-10T15:47:46.228Z,-2.70
2023-12-10T15:50:13.533Z,-2.70
2023-12-10T15:52:41.480Z,-2.60
2023-12-10T15:55:09.716Z,-2.60
2023-12-10T15:57:38.563Z,-2.60
2023-12-10T16:00:06.519Z,-2.60
2023-12-10T16:02:33.604Z,-2.60
2023-12-10T16:05:02.394Z,-2.60
2023-12-10T16:07:37.063Z,-2.50
2023-12-10T16:10:12.724Z,-2.50
2023-12-10T16:12:39.809Z,-2.40
2023-12-10T16:15:07.487Z,-2.60
2023-12-10T16:17:35.117Z,-2.60
2023-12-10T16:20:04.390Z,-2.40
2023-12-10T16:22:31.589Z,-2.50
2023-12-10T16:24:58.660Z,-2.50
2023-12-10T16:27:25.572Z,-2.50
2023-12-10T16:29:52.540Z,-2.60
2023-12-10T16:32:19.465Z,-2.30
2023-12-10T16:34:46.507Z,-2.50
2023-12-10T16:37:15.626Z,-2.50
2023-12-10T16:39:43.937Z,-2.40
2023-12-10T16:42:10.927Z,-2.30
2023-12-10T16:44:37.871Z,-2.50
2023-12-10T16:47:04.982Z,-2.60
2023-12-10T16:49:33.019Z,-2.40
2023-12-10T16:52:00.066Z,-2.40
2023-12-10T16:54:27.074Z,-2.40
2023-12-10T16:56:54.042Z,-2.50
2023-12-10T16:59:20.988Z,-2.50
2023-12-10T17:01:48.166Z,-2.40
2023-12-10T17:04:15.205Z,-2.40
2023-12-10T17:06:42.469Z,-2.30
2023-12-10T17:09:09.574Z,-2.60
2023-12-10T17:11:36.630Z,-2.50
2023-12-10T17:14:03.420Z,-2.40
2023-12-10T17:16:30.544Z,-2.30
2023-12-10T17:18:57.639Z,-2.40
2023-12-10T17:21:24.558Z,-2.50
2023-12-10T17:23:51.448Z,-2.30
2023-12-10T17:26:18.336Z,-2.30
2023-12-10T17:28:45.269Z,-2.50
2023-12-10T17:31:13.302Z,-2.30
2023-12-10T17:33:40.486Z,-2.30
2023-12-10T17:36:07.687Z,-2.30
2023-12-10T17:38:34.579Z,-2.30
2023-12-10T17:41:01.490Z,-2.40
2023-12-10T17:43:28.359Z,-2.40
2023-12-10T17:45:55.346Z,-2.30
2023-12-10T17:48:22.388Z,-2.30
2023-12-10T17:50:49.351Z,-2.30
2023-12-10T17:53:16.328Z,-2.30
2023-12-10T17:55:43.185Z,-2.40
2023-12-10T17:58:10.198Z,-2.20
2023-12-10T18:00:37.425Z,-2.30
2023-12-10T18:03:04.609Z,-2.30
2023-12-10T18:05:31.555Z,-2.30
2023-12-10T18:07:58.487Z,-2.40
2023-12-10T18:10:25.721Z,-2.30
2023-12-10T18:12:52.800Z,-2.40
2023-12-10T18:15:19.709Z,-2.40
2023-12-10T18:17:46.619Z,-2.20
2023-12-10T18:20:13.545Z,-2.30
2023-12-10T18:22:40.434Z,-2.30
2023-12-10T18:25:07.886Z,-2.20
2023-12-10T18:27:38.022Z,-2.20
2023-12-10T18:30:06.539Z,-2.10
2023-12-10T18:32:33.656Z,-2.20
2023-12-10T18:35:00.548Z,-2.30
2023-12-10T18:37:27.685Z,-2.20
2023-12-10T18:39:54.913Z,-2.10
2023-12-10T18:42:21.843Z,-2.10
2023-12-10T18:44:48.774Z,-2.10
2023-12-10T18:47:15.671Z,-2.00
2023-12-10T18:49:43.790Z,-2.00
2023-12-10T18:52:10.837Z,-2.10
2023-12-10T18:54:37.742Z,-2.10
2023-12-10T18:57:04.933Z,-1.70
2023-12-10T18:59:31.863Z,-2.10
2023-12-10T19:01:58.790Z,-2.00
2023-12-10T19:04:25.815Z,-1.80
2023-12-10T19:06:54.064Z,-1.90
2023-12-10T19:09:21.082Z,-2.00
2023-12-10T19:11:47.997Z,-2.00
2023-12-10T19:14:14.944Z,-1.90
2023-12-10T19:16:41.849Z,-1.90
2023-12-10T19:19:08.854Z,-2.00
2023-12-10T19:21:35.902Z,-2.00
2023-12-10T19:24:06.518Z,-2.00
2023-12-10T19:26:33.828Z,-1.90
2023-12-10T19:29:00.604Z,-1.80
2023-12-10T19:31:27.765Z,-1.80
2023-12-10T19:33:54.740Z,-1.80
2023-12-10T19:36:21.679Z,-2.00
2023-12-10T19:38:48.646Z,-1.80
2023-12-10T19:41:16.135Z,-1.80
2023-12-10T19:43:43.036Z,-1.80
2023-12-10T19:46:10.116Z,-1.80
2023-12-10T19:48:37.170Z,-2.00
2023-12-10T19:51:04.897Z,-1.80
2023-12-10T19:53:32.015Z,-1.90
2023-12-10T19:55:58.898Z,-1.80
2023-12-10T19:58:25.965Z,-1.50
2023-12-10T20:00:53.963Z,-1.80
2023-12-10T20:03:21.121Z,-1.60
2023-12-10T20:05:48.150Z,-1.90
2023-12-10T20:08:15.070Z,-1.70
2023-12-10T20:10:43.526Z,-1.60
2023-12-10T20:13:10.686Z,-1.80
2023-12-10T20:15:37.624Z,-1.60
2023-12-10T20:18:04.888Z,-1.80
2023-12-10T20:20:31.848Z,-1.80
2023-12-10T20:22:58.727Z,-2.00
2023-12-10T20:25:32.513Z,-1.70
2023-12-10T20:28:02.782Z,-1.70
2023-12-10T20:30:30.705Z,-1.60
2023-12-10T20:32:57.632Z,-1.70
2023-12-10T20:35:24.826Z,-1.60
2023-12-10T20:37:51.982Z,-1.70
2023-12-10T20:40:19.177Z,-1.70
2023-12-10T20:42:46.314Z,-1.50
2023-12-10T20:45:14.217Z,-1.70
2023-12-10T20:47:41.208Z,-1.50
2023-12-10T20:50:08.541Z,-1.70
2023-12-10T20:52:35.441Z,-1.70
2023-12-10T20:55:02.318Z,-1.70
2023-12-10T20:57:29.553Z,-1.80
2023-12-10T20:59:56.647Z,-1.70
2023-12-10T21:02:29.282Z,-1.80
2023-12-10T21:04:57.164Z,-1.70
2023-12-10T21:07:24.127Z,-1.60
2023-12-10T21:09:51.354Z,-1.50
2023-12-10T21:12:18.714Z,-1.70
2023-12-10T21:14:45.700Z,-1.70
2023-12-10T21:17:15.944Z,-1.70
2023-12-10T21:19:44.113Z,-1.80
2023-12-10T21:22:11.323Z,-1.70
2023-12-10T21:24:38.367Z,-1.60
2023-12-10T21:27:05.452Z,-1.70
2023-12-10T21:29:32.356Z,-1.70
2023-12-10T21:31:59.638Z,-1.70
2023-12-10T21:34:26.820Z,-1.60
2023-12-10T21:36:53.897Z,-1.60
2023-12-10T21:39:20.857Z,-1.70
2023-12-10T21:41:47.908Z,-1.70
2023-12-10T21:44:14.829Z,-1.50
2023-12-10T21:46:41.700Z,-1.60
2023-12-10T21:49:08.799Z,-1.60
2023-12-10T21:51:36.087Z,-1.60
2023-12-10T21:54:06.927Z,-1.70
2023-12-10T21:56:34.766Z,-1.70
2023-12-10T21:59:01.598Z,-1.60
2023-12-10T22:01:28.638Z,-1.80
2023-12-10T22:03:55.687Z,-1.50
2023-12-10T22:06:23.493Z,-1.80
2023-12-10T22:08:50.477Z,-1.70
2023-12-10T22:11:17.311Z,-1.60
2023-12-10T22:13:44.660Z,-1.60
2023-12-10T22:16:12.203Z,-1.70
2023-12-10T22:18:39.341Z,-1.70
2023-12-10T22:21:07.806Z,-1.70
2023-12-10T22:23:34.779Z,-1.80
2023-12-10T22:26:01.778Z,-1.70
2023-12-10T22:28:28.722Z,-1.60
2023-12-10T22:30:55.611Z,-1.70
2023-12-10T22:33:22.487Z,-1.50
2023-12-10T22:35:49.407Z,-1.60
2023-12-10T22:38:16.336Z,-1.40
2023-12-10T22:40:43.286Z,-1.70
2023-12-10T22:43:10.399Z,-1.60
2023-12-10T22:45:37.494Z,-1.60
2023-12-10T22:48:04.911Z,-1.70
2023-12-10T22:50:31.828Z,-1.80
2023-12-10T22:52:58.757Z,-1.60
2023-12-10T22:55:26.429Z,-1.80
2023-12-10T22:57:53.324Z,-1.60
2023-12-10T23:00:23.377Z,-1.70
2023-12-10T23:02:50.459Z,-1.60
2023-12-10T23:05:18.148Z,-1.60
2023-12-10T23:07:45.018Z,-1.70
2023-12-10T23:10:12.694Z,-1.70
2023-12-10T23:12:39.834Z,-1.80
2023-12-10T23:15:07.453Z,-1.70
2023-12-10T23:17:35.012Z,-1.70
2023-12-10T23:20:02.223Z,-1.60
2023-12-10T23:22:29.292Z,-1.80
2023-12-10T23:24:56.315Z,-1.90
2023-12-10T23:27:23.328Z,-1.70
2023-12-10T23:29:50.216Z,-1.70
2023-12-10T23:32:17.524Z,-1.70
2023-12-10T23:34:45.034Z,-1.60
2023-12-10T23:37:11.991Z,-1.80
2023-12-10T23:39:40.650Z,-1.80
2023-12-10T23:42:08.402Z,-1.80
2023-12-10T23:44:35.272Z,-1.80
2023-12-10T23:47:02.194Z,-1.90
2023-12-10T23:49:29.224Z,-1.80
2023-12-10T23:51:56.195Z,-1.70
2023-12-10T23:54:23.248Z,-1.90
2023-12-10T23:56:50.138Z,-1.70
2023-12-10T23:59:17.050Z,-1.80
